createdAt,value
2018-06-12T00:01:26.910Z,100661.92
2018-06-12T00:03:55.152Z,100660.66
2018-06-12T00:06:23.402Z,100662.89
2018-06-12T00:08:51.648Z,100661.00
2018-06-12T00:11:19.942Z,100655.20
2018-06-12T00:13:48.524Z,100657.46
2018-06-12T00:16:16.771Z,100658.30
2018-06-12T00:18:45.016Z,100658.90
2018-06-12T00:21:13.277Z,100652.99
2018-06-12T00:23:41.623Z,100655.61
2018-06-12T00:26:10.022Z,100651.49
2018-06-12T00:28:38.247Z,100649.46
2018-06-12T00:31:06.459Z,100650.34
2018-06-12T00:33:34.681Z,100646.83
2018-06-12T00:36:02.880Z,100645.22
2018-06-12T00:38:31.104Z,100643.86
2018-06-12T00:40:59.349Z,100641.80
2018-06-12T00:43:27.585Z,100636.46
2018-06-12T00:45:55.830Z,100636.34
2018-06-12T00:48:24.121Z,100639.19
2018-06-12T00:50:52.344Z,100636.47
2018-06-12T00:53:20.891Z,100642.02
2018-06-12T00:55:49.220Z,100639.77
2018-06-12T00:58:17.449Z,100638.69
2018-06-12T01:00:45.800Z,100633.92
2018-06-12T01:03:14.036Z,100640.17
2018-06-12T01:05:42.364Z,100640.89
2018-06-12T01:08:10.620Z,100644.46
2018-06-12T01:10:38.876Z,100637.45
2018-06-12T01:13:07.081Z,100641.17
2018-06-12T01:15:35.315Z,100636.65
2018-06-12T01:18:03.554Z,100632.48
2018-06-12T01:20:31.887Z,100636.75
2018-06-12T01:23:00.161Z,100635.11
2018-06-12T01:25:28.357Z,100637.25
2018-06-12T01:27:56.624Z,100632.20
2018-06-12T01:30:24.836Z,100633.22
2018-06-12T01:32:53.046Z,100636.02
2018-06-12T01:35:22.086Z,100637.70
2018-06-12T01:37:50.324Z,100634.62
2018-06-12T01:40:18.588Z,100642.48
2018-06-12T01:42:46.846Z,100642.35
2018-06-12T01:45:15.377Z,100639.31
2018-06-12T01:47:43.580Z,100643.90
2018-06-12T01:50:11.861Z,100643.05
2018-06-12T01:52:40.060Z,100644.95
2018-06-12T01:55:08.338Z,100648.76
2018-06-12T01:57:36.564Z,100650.48
2018-06-12T02:00:04.819Z,100643.39
2018-06-12T02:02:33.059Z,100641.63
2018-06-12T02:05:01.381Z,100646.97
2018-06-12T02:07:29.634Z,100640.76
2018-06-12T02:09:57.930Z,100644.09
2018-06-12T02:12:26.172Z,100641.66
2018-06-12T02:14:54.431Z,100639.04
2018-06-12T02:17:22.718Z,100640.55
2018-06-12T02:19:50.925Z,100639.92
2018-06-12T02:22:19.207Z,100639.16
2018-06-12T02:24:47.408Z,100630.98
2018-06-12T02:27:15.650Z,100630.33
2018-06-12T02:29:43.865Z,100627.37
2018-06-12T02:32:12.091Z,100626.34
2018-06-12T02:34:40.303Z,100623.93
2018-06-12T02:37:08.549Z,100627.95
2018-06-12T02:39:36.840Z,100631.03
2018-06-12T02:42:05.105Z,100625.33
2018-06-12T02:44:33.385Z,100630.33
2018-06-12T02:47:01.621Z,100631.41
2018-06-12T02:49:29.893Z,100626.73
2018-06-12T02:51:58.153Z,100629.78
2018-06-12T02:54:26.367Z,100633.30
2018-06-12T02:56:54.646Z,100630.34
2018-06-12T02:59:22.838Z,100620.77
2018-06-12T03:01:51.049Z,100617.13
2018-06-12T03:04:19.265Z,100621.16
2018-06-12T03:06:47.570Z,100622.30
2018-06-12T03:09:15.772Z,100625.87
2018-06-12T03:11:43.999Z,100627.56
2018-06-12T03:14:12.241Z,100622.54
2018-06-12T03:16:40.535Z,100627.51
2018-06-12T03:19:08.761Z,100625.73
2018-06-12T03:21:37.041Z,100628.13
2018-06-12T03:24:05.271Z,100638.78
2018-06-12T03:26:33.557Z,100632.31
2018-06-12T03:29:01.747Z,100639.53
2018-06-12T03:31:29.975Z,100641.50
2018-06-12T03:33:58.235Z,100640.55
2018-06-12T03:36:26.503Z,100646.73
2018-06-12T03:38:54.731Z,100644.53
2018-06-12T03:41:22.994Z,100647.52
2018-06-12T03:43:51.264Z,100646.66
2018-06-12T03:46:19.470Z,100651.28
2018-06-12T03:48:47.776Z,100646.06
2018-06-12T03:51:16.007Z,100646.91
2018-06-12T03:53:44.251Z,100653.36
2018-06-12T03:56:12.452Z,100647.27
2018-06-12T03:58:40.665Z,100646.63
2018-06-12T04:01:09.642Z,100648.55
2018-06-12T04:03:37.978Z,100652.45
2018-06-12T04:06:06.255Z,100654.05
2018-06-12T04:08:34.557Z,100649.13
2018-06-12T04:11:03.416Z,100652.17
2018-06-12T04:13:31.663Z,100648.44
2018-06-12T04:15:59.888Z,100645.08
2018-06-12T04:18:28.125Z,100647.83
2018-06-12T04:20:56.363Z,100641.18
2018-06-12T04:23:24.569Z,100634.30
2018-06-12T04:25:52.821Z,100642.25
2018-06-12T04:28:21.038Z,100643.23
2018-06-12T04:30:49.292Z,100645.98
2018-06-12T04:33:17.536Z,100650.31
2018-06-12T04:35:45.816Z,100649.53
2018-06-12T04:38:14.045Z,100655.27
2018-06-12T04:40:42.296Z,100651.70
2018-06-12T04:43:10.547Z,100651.99
2018-06-12T04:45:38.789Z,100648.19
2018-06-12T04:48:07.030Z,100651.25
2018-06-12T04:50:35.288Z,100647.67
2018-06-12T04:53:03.536Z,100652.30
2018-06-12T04:55:31.772Z,100654.05
2018-06-12T04:58:00.032Z,100647.13
2018-06-12T05:00:28.251Z,100657.84
2018-06-12T05:02:56.532Z,100650.98
2018-06-12T05:05:24.767Z,100648.55
2018-06-12T05:07:53.017Z,100643.77
2018-06-12T05:10:21.265Z,100644.52
2018-06-12T05:12:49.580Z,100647.48
2018-06-12T05:15:17.807Z,100652.78
2018-06-12T05:17:46.015Z,100652.61
2018-06-12T05:20:14.264Z,100654.78
2018-06-12T05:22:42.523Z,100649.67
2018-06-12T05:25:10.919Z,100654.20
2018-06-12T05:27:40.279Z,100654.92
2018-06-12T05:30:08.576Z,100656.86
2018-06-12T05:32:36.832Z,100651.01
2018-06-12T05:35:06.122Z,100644.50
2018-06-12T05:37:34.461Z,100645.91
2018-06-12T05:40:02.716Z,100645.25
2018-06-12T05:42:30.952Z,100649.48
2018-06-12T05:44:59.246Z,100644.39
2018-06-12T05:47:27.498Z,100640.28
2018-06-12T05:49:55.775Z,100656.06
2018-06-12T05:52:23.999Z,100659.88
2018-06-12T05:54:52.280Z,100644.11
2018-06-12T05:57:20.519Z,100653.52
2018-06-12T05:59:48.733Z,100652.88
2018-06-12T06:02:17.001Z,100659.14
2018-06-12T06:04:45.318Z,100657.16
2018-06-12T06:07:13.556Z,100655.80
2018-06-12T06:09:41.821Z,100662.95
2018-06-12T06:12:10.042Z,100655.04
2018-06-12T06:14:38.279Z,100653.95
2018-06-12T06:17:06.556Z,100652.16
2018-06-12T06:19:34.824Z,100655.25
2018-06-12T06:22:03.047Z,100654.05
2018-06-12T06:24:31.363Z,100657.69
2018-06-12T06:26:59.618Z,100653.45
2018-06-12T06:29:28.153Z,100653.09
2018-06-12T06:31:56.612Z,100664.95
2018-06-12T06:34:24.908Z,100661.48
2018-06-12T06:36:53.193Z,100664.75
2018-06-12T06:39:21.467Z,100659.14
2018-06-12T06:41:49.829Z,100663.83
2018-06-12T06:44:18.117Z,100666.08
2018-06-12T06:46:46.400Z,100668.46
2018-06-12T06:49:14.597Z,100674.91
2018-06-12T06:51:42.815Z,100679.06
2018-06-12T06:54:11.018Z,100683.96
2018-06-12T06:56:39.298Z,100678.42
2018-06-12T06:59:07.542Z,100677.80
2018-06-12T07:01:36.035Z,100675.50
2018-06-12T07:04:04.280Z,100669.30
2018-06-12T07:06:32.484Z,100666.56
2018-06-12T07:09:00.781Z,100671.27
2018-06-12T07:11:29.112Z,100679.00
2018-06-12T07:13:57.397Z,100683.94
2018-06-12T07:16:25.659Z,100683.23
2018-06-12T07:18:53.920Z,100685.33
2018-06-12T07:21:23.943Z,100684.81
2018-06-12T07:23:52.232Z,100682.59
2018-06-12T07:26:20.486Z,100686.66
2018-06-12T07:28:48.730Z,100699.36
2018-06-12T07:31:16.991Z,100696.53
2018-06-12T07:33:45.343Z,100698.20
2018-06-12T07:36:13.647Z,100693.31
2018-06-12T07:38:41.915Z,100699.40
2018-06-12T07:41:10.148Z,100701.87
2018-06-12T07:43:38.422Z,100702.77
2018-06-12T07:46:06.640Z,100705.73
2018-06-12T07:48:34.876Z,100708.91
2018-06-12T07:51:03.077Z,100704.13
2018-06-12T07:53:31.423Z,100702.74
2018-06-12T07:55:59.696Z,100701.86
2018-06-12T07:58:27.970Z,100703.31
2018-06-12T08:00:56.896Z,100706.88
2018-06-12T08:03:25.166Z,100716.31
2018-06-12T08:05:53.535Z,100711.56
2018-06-12T08:08:21.737Z,100710.84
2018-06-12T08:10:50.035Z,100713.55
2018-06-12T08:13:18.310Z,100708.12
2018-06-12T08:15:46.557Z,100710.39
2018-06-12T08:18:14.856Z,100715.86
2018-06-12T08:20:43.104Z,100722.16
2018-06-12T08:23:11.348Z,100722.22
2018-06-12T08:25:39.763Z,100721.67
2018-06-12T08:28:08.135Z,100725.86
2018-06-12T08:30:36.423Z,100729.02
2018-06-12T08:33:04.672Z,100729.73
2018-06-12T08:35:32.973Z,100723.39
2018-06-12T08:38:01.245Z,100719.38
2018-06-12T08:40:29.517Z,100716.75
2018-06-12T08:42:57.844Z,100720.44
2018-06-12T08:45:26.132Z,100719.56
2018-06-12T08:47:54.393Z,100716.94
2018-06-12T08:50:22.611Z,100709.58
2018-06-12T08:52:50.925Z,100708.25
2018-06-12T08:55:19.168Z,100705.49
2018-06-12T08:57:47.412Z,100703.08
2018-06-12T09:00:15.669Z,100699.23
2018-06-12T09:02:43.986Z,100696.80
2018-06-12T09:05:12.217Z,100698.32
2018-06-12T09:07:40.490Z,100698.47
2018-06-12T09:10:08.778Z,100703.77
2018-06-12T09:12:37.073Z,100692.59
2018-06-12T09:15:05.479Z,100699.08
2018-06-12T09:17:33.703Z,100697.11
2018-06-12T09:20:01.976Z,100695.45
2018-06-12T09:22:30.265Z,100694.16
2018-06-12T09:24:58.503Z,100691.39
2018-06-12T09:27:26.816Z,100702.30
2018-06-12T09:29:55.120Z,100709.86
2018-06-12T09:32:23.409Z,100700.73
2018-06-12T09:34:51.716Z,100701.95
2018-06-12T09:37:19.987Z,100696.80
2018-06-12T09:39:48.309Z,100701.89
2018-06-12T09:42:16.581Z,100709.00
2018-06-12T09:44:44.811Z,100708.88
2018-06-12T09:47:13.039Z,100708.80
2018-06-12T09:49:41.345Z,100714.72
2018-06-12T09:52:09.600Z,100716.45
2018-06-12T09:54:37.974Z,100713.66
2018-06-12T09:57:06.246Z,100717.78
2018-06-12T09:59:34.462Z,100719.45
2018-06-12T10:02:02.714Z,100726.09
2018-06-12T10:04:30.987Z,100723.78
2018-06-12T10:06:59.247Z,100727.30
2018-06-12T10:09:27.463Z,100730.43
2018-06-12T10:11:55.708Z,100729.73
2018-06-12T10:14:24.072Z,100730.27
2018-06-12T10:16:52.309Z,100736.53
2018-06-12T10:19:20.536Z,100740.77
2018-06-12T10:21:48.775Z,100737.83
2018-06-12T10:24:17.005Z,100736.34
2018-06-12T10:26:45.237Z,100738.81
2018-06-12T10:29:13.440Z,100742.92
2018-06-12T10:31:41.649Z,100734.22
2018-06-12T10:34:09.902Z,100731.94
2018-06-12T10:36:38.119Z,100732.65
2018-06-12T10:39:08.049Z,100735.55
2018-06-12T10:41:36.340Z,100729.03
2018-06-12T10:44:04.553Z,100727.45
2018-06-12T10:46:32.827Z,100731.58
2018-06-12T10:49:01.104Z,100729.70
2018-06-12T10:51:29.293Z,100725.23
2018-06-12T10:53:57.550Z,100729.39
2018-06-12T10:56:25.761Z,100728.13
2018-06-12T10:58:54.154Z,100724.75
2018-06-12T11:01:22.414Z,100722.27
2018-06-12T11:03:50.768Z,100719.59
2018-06-12T11:06:18.988Z,100721.81
2018-06-12T11:08:47.178Z,100727.30
2018-06-12T11:11:15.390Z,100716.61
2018-06-12T11:13:43.693Z,100726.02
2018-06-12T11:16:11.951Z,100729.97
2018-06-12T11:18:40.197Z,100729.85
2018-06-12T11:21:08.530Z,100728.64
2018-06-12T11:23:36.808Z,100739.70
2018-06-12T11:26:05.137Z,100739.53
2018-06-12T11:28:33.359Z,100750.58
2018-06-12T11:31:01.575Z,100735.61
2018-06-12T11:33:29.834Z,100738.56
2018-06-12T11:35:58.100Z,100736.12
2018-06-12T11:38:26.347Z,100738.59
2018-06-12T11:40:54.591Z,100731.13
2018-06-12T11:43:22.836Z,100738.57
2018-06-12T11:45:51.077Z,100733.19
2018-06-12T11:48:19.289Z,100731.48
2018-06-12T11:50:47.536Z,100734.48
2018-06-12T11:53:15.776Z,100732.18
2018-06-12T11:55:44.960Z,100731.84
2018-06-12T11:58:13.202Z,100737.98
2018-06-12T12:00:41.428Z,100737.45
2018-06-12T12:03:09.656Z,100736.59
2018-06-12T12:05:37.942Z,100728.42
2018-06-12T12:08:06.237Z,100727.42
2018-06-12T12:10:34.488Z,100724.39
2018-06-12T12:13:02.786Z,100723.57
2018-06-12T12:15:31.045Z,100723.41
2018-06-12T12:17:59.314Z,100726.48
2018-06-12T12:20:27.552Z,100719.06
2018-06-12T12:22:55.798Z,100725.91
2018-06-12T12:25:23.988Z,100720.78
2018-06-12T12:27:52.283Z,100726.69
2018-06-12T12:30:20.518Z,100731.61
2018-06-12T12:32:48.759Z,100727.14
2018-06-12T12:35:17.001Z,100730.83
2018-06-12T12:37:45.202Z,100724.63
2018-06-12T12:40:13.447Z,100733.17
2018-06-12T12:42:41.717Z,100738.58
2018-06-12T12:45:09.985Z,100734.72
2018-06-12T12:47:38.219Z,100733.91
2018-06-12T12:50:06.528Z,100738.70
2018-06-12T12:52:34.840Z,100734.36
2018-06-12T12:55:03.256Z,100738.08
2018-06-12T12:57:31.511Z,100730.89
2018-06-12T12:59:59.813Z,100737.46
2018-06-12T13:02:28.042Z,100733.75
2018-06-12T13:04:56.292Z,100739.75
2018-06-12T13:07:24.516Z,100734.47
2018-06-12T13:09:52.773Z,100737.92
2018-06-12T13:12:21.034Z,100732.70
2018-06-12T13:14:49.321Z,100735.89
2018-06-12T13:17:17.596Z,100743.97
2018-06-12T13:19:45.799Z,100748.80
2018-06-12T13:22:14.087Z,100748.38
2018-06-12T13:24:42.299Z,100750.23
2018-06-12T13:27:10.589Z,100750.70
2018-06-12T13:29:38.837Z,100744.30
2018-06-12T13:32:07.104Z,100750.34
2018-06-12T13:34:35.323Z,100745.63
2018-06-12T13:37:03.592Z,100737.61
2018-06-12T13:39:31.836Z,100733.16
2018-06-12T13:42:00.079Z,100734.28
2018-06-12T13:44:28.455Z,100729.33
2018-06-12T13:46:56.704Z,100732.67
2018-06-12T13:49:25.043Z,100736.50
2018-06-12T13:51:53.371Z,100733.69
2018-06-12T13:54:21.684Z,100735.52
2018-06-12T13:56:49.995Z,100730.39
2018-06-12T13:59:18.316Z,100733.24
2018-06-12T14:01:46.603Z,100725.95
2018-06-12T14:04:14.840Z,100726.44
2018-06-12T14:06:43.095Z,100730.16
2018-06-12T14:09:11.322Z,100732.59
2018-06-12T14:11:39.561Z,100728.58
2018-06-12T14:14:07.788Z,100728.13
2018-06-12T14:16:36.008Z,100726.11
2018-06-12T14:19:04.225Z,100719.71
2018-06-12T14:21:32.583Z,100730.65
2018-06-12T14:24:00.813Z,100725.86
2018-06-12T14:26:29.052Z,100719.46
2018-06-12T14:28:57.328Z,100725.15
2018-06-12T14:31:25.556Z,100729.91
2018-06-12T14:33:53.827Z,100738.11
2018-06-12T14:36:22.074Z,100731.27
2018-06-12T14:38:50.304Z,100726.45
2018-06-12T14:41:18.583Z,100732.80
2018-06-12T14:43:46.832Z,100718.55
2018-06-12T14:46:15.094Z,100726.44
2018-06-12T14:48:43.368Z,100733.34
2018-06-12T14:51:11.601Z,100721.20
2018-06-12T14:53:40.814Z,100726.64
2018-06-12T14:56:09.108Z,100720.20
2018-06-12T14:58:37.298Z,100724.84
2018-06-12T15:01:05.574Z,100719.50
2018-06-12T15:03:33.829Z,100723.34
2018-06-12T15:06:02.804Z,100723.67
2018-06-12T15:08:31.134Z,100715.13
2018-06-12T15:11:00.178Z,100723.38
2018-06-12T15:13:28.402Z,100723.91
2018-06-12T15:15:56.637Z,100718.34
2018-06-12T15:18:24.868Z,100716.77
2018-06-12T15:20:53.158Z,100723.84
2018-06-12T15:23:21.421Z,100734.58
2018-06-12T15:25:49.801Z,100732.83
2018-06-12T15:28:18.065Z,100725.30
2018-06-12T15:30:46.327Z,100714.31
2018-06-12T15:33:14.643Z,100717.81
2018-06-12T15:35:42.856Z,100718.34
2018-06-12T15:38:11.089Z,100726.09
2018-06-12T15:40:39.376Z,100722.42
2018-06-12T15:43:07.658Z,100720.72
2018-06-12T15:45:35.873Z,100719.28
2018-06-12T15:48:04.160Z,100715.05
2018-06-12T15:50:32.437Z,100709.10
2018-06-12T15:53:00.631Z,100712.16
2018-06-12T15:55:28.879Z,100703.31
2018-06-12T15:57:57.128Z,100704.85
2018-06-12T16:00:25.381Z,100705.05
2018-06-12T16:02:54.716Z,100703.24
2018-06-12T16:05:23.054Z,100699.65
2018-06-12T16:07:51.285Z,100698.36
2018-06-12T16:10:19.575Z,100699.72
2018-06-12T16:12:48.367Z,100694.98
2018-06-12T16:15:16.601Z,100700.73
2018-06-12T16:17:44.863Z,100701.34
2018-06-12T16:20:13.172Z,100694.86
2018-06-12T16:22:42.244Z,100709.72
2018-06-12T16:25:10.507Z,100721.28
2018-06-12T16:27:38.752Z,100712.05
2018-06-12T16:30:07.051Z,100713.66
2018-06-12T16:32:35.345Z,100709.19
2018-06-12T16:35:03.588Z,100703.09
2018-06-12T16:37:32.269Z,100694.77
2018-06-12T16:40:00.468Z,100704.27
2018-06-12T16:42:29.262Z,100701.99
2018-06-12T16:44:57.455Z,100704.67
2018-06-12T16:47:25.705Z,100706.32
2018-06-12T16:49:54.209Z,100702.95
2018-06-12T16:52:22.470Z,100703.24
2018-06-12T16:54:50.718Z,100701.59
2018-06-12T16:57:18.997Z,100701.59
2018-06-12T16:59:47.228Z,100699.72
2018-06-12T17:02:15.499Z,100705.89
2018-06-12T17:04:43.786Z,100710.83
2018-06-12T17:07:12.026Z,100703.36
2018-06-12T17:09:40.304Z,100710.05
2018-06-12T17:12:08.556Z,100713.59
2018-06-12T17:14:36.828Z,100707.90
2018-06-12T17:17:05.101Z,100705.00
2018-06-12T17:19:33.330Z,100696.94
2018-06-12T17:22:01.766Z,100702.70
2018-06-12T17:24:30.435Z,100702.63
2018-06-12T17:26:58.715Z,100699.05
2018-06-12T17:29:26.948Z,100696.89
2018-06-12T17:31:55.167Z,100694.94
2018-06-12T17:34:23.491Z,100692.44
2018-06-12T17:36:51.718Z,100700.98
2018-06-12T17:39:20.069Z,100685.73
2018-06-12T17:41:48.349Z,100681.45
2018-06-12T17:44:16.552Z,100690.50
2018-06-12T17:46:44.842Z,100700.44
2018-06-12T17:49:13.051Z,100696.05
2018-06-12T17:51:41.284Z,100687.16
2018-06-12T17:54:09.544Z,100681.89
2018-06-12T17:56:37.772Z,100692.28
2018-06-12T17:59:06.028Z,100692.32
2018-06-12T18:01:34.286Z,100682.03
2018-06-12T18:04:02.522Z,100677.48
2018-06-12T18:06:30.749Z,100676.22
2018-06-12T18:08:59.013Z,100679.28
2018-06-12T18:11:27.219Z,100677.48
2018-06-12T18:13:55.505Z,100680.83
2018-06-12T18:16:23.754Z,100680.30
2018-06-12T18:18:52.044Z,100697.41
2018-06-12T18:21:20.263Z,100690.53
2018-06-12T18:23:48.580Z,100683.99
2018-06-12T18:26:16.858Z,100673.45
2018-06-12T18:28:45.222Z,100674.87
2018-06-12T18:31:13.537Z,100686.62
2018-06-12T18:33:41.841Z,100677.52
2018-06-12T18:36:10.113Z,100681.56
2018-06-12T18:38:38.379Z,100688.70
2018-06-12T18:41:06.618Z,100689.38
2018-06-12T18:43:34.857Z,100686.09
2018-06-12T18:46:03.084Z,100691.25
2018-06-12T18:48:31.316Z,100693.84
2018-06-12T18:51:00.360Z,100692.73
2018-06-12T18:53:28.607Z,100698.84
2018-06-12T18:55:56.855Z,100692.73
2018-06-12T18:58:25.270Z,100694.36
2018-06-12T19:00:53.583Z,100693.58
2018-06-12T19:03:21.870Z,100696.34
2018-06-12T19:05:50.098Z,100694.41
2018-06-12T19:08:18.420Z,100690.42
2018-06-12T19:10:46.731Z,100699.34
2018-06-12T19:13:15.090Z,100694.36
2018-06-12T19:15:43.605Z,100694.33
2018-06-12T19:18:11.930Z,100695.17
2018-06-12T19:20:40.219Z,100693.84
2018-06-12T19:23:08.502Z,100697.76
2018-06-12T19:25:36.768Z,100692.13
2018-06-12T19:28:05.091Z,100706.94
2018-06-12T19:30:33.463Z,100701.13
2018-06-12T19:33:01.669Z,100698.27
2018-06-12T19:35:30.017Z,100701.68
2018-06-12T19:37:58.288Z,100698.52
2018-06-12T19:40:26.591Z,100703.31
2018-06-12T19:42:54.813Z,100707.45
2018-06-12T19:45:23.139Z,100714.13
2018-06-12T19:47:51.460Z,100716.34
2018-06-12T19:50:19.801Z,100720.44
2018-06-12T19:52:48.059Z,100723.48
2018-06-12T19:55:16.347Z,100724.00
2018-06-12T19:57:46.530Z,100720.50
2018-06-12T20:00:17.144Z,100723.76
2018-06-12T20:02:45.319Z,100735.08
2018-06-12T20:05:13.522Z,100727.48
2018-06-12T20:07:41.789Z,100726.66
2018-06-12T20:10:10.016Z,100731.20
2018-06-12T20:12:38.320Z,100729.05
2018-06-12T20:15:06.549Z,100725.25
2018-06-12T20:17:34.819Z,100725.94
2018-06-12T20:20:03.055Z,100723.45
2018-06-12T20:22:31.304Z,100729.23
2018-06-12T20:24:59.634Z,100732.03
2018-06-12T20:27:28.011Z,100734.86
2018-06-12T20:29:56.304Z,100737.95
2018-06-12T20:32:24.540Z,100733.72
2018-06-12T20:34:52.818Z,100733.11
2018-06-12T20:37:21.045Z,100735.17
2018-06-12T20:39:49.281Z,100734.51
2018-06-12T20:42:17.486Z,100732.53
2018-06-12T20:44:45.785Z,100740.16
2018-06-12T20:47:14.053Z,100736.76
2018-06-12T20:49:42.475Z,100739.08
2018-06-12T20:52:10.861Z,100735.33
2018-06-12T20:54:39.114Z,100735.59
2018-06-12T20:57:07.475Z,100736.78
2018-06-12T20:59:35.768Z,100738.22
2018-06-12T21:02:04.034Z,100736.84
2018-06-12T21:04:32.268Z,100739.22
2018-06-12T21:07:00.643Z,100743.75
2018-06-12T21:09:28.820Z,100745.51
2018-06-12T21:11:57.080Z,100746.39
2018-06-12T21:14:25.304Z,100746.38
2018-06-12T21:16:53.533Z,100744.88
2018-06-12T21:19:21.830Z,100742.28
2018-06-12T21:21:50.136Z,100744.23
2018-06-12T21:24:18.378Z,100753.40
2018-06-12T21:26:46.775Z,100748.50
2018-06-12T21:29:15.022Z,100752.45
2018-06-12T21:31:43.321Z,100751.09
2018-06-12T21:34:11.688Z,100751.91
2018-06-12T21:36:39.998Z,100756.27
2018-06-12T21:39:08.499Z,100750.70
2018-06-12T21:41:36.778Z,100747.88
2018-06-12T21:44:05.152Z,100746.08
2018-06-12T21:46:33.365Z,100755.92
2018-06-12T21:49:01.585Z,100755.39
2018-06-12T21:51:29.896Z,100752.30
2018-06-12T21:53:58.221Z,100749.56
2018-06-12T21:56:26.448Z,100755.19
2018-06-12T21:58:54.826Z,100748.06
2018-06-12T22:01:23.012Z,100749.44
2018-06-12T22:03:51.415Z,100742.84
2018-06-12T22:06:20.331Z,100739.55
2018-06-12T22:08:48.651Z,100736.67
2018-06-12T22:11:16.896Z,100738.26
2018-06-12T22:13:45.104Z,100744.47
2018-06-12T22:16:22.016Z,100738.00
2018-06-12T22:18:50.765Z,100737.48
2018-06-12T22:21:19.698Z,100738.87
2018-06-12T22:23:48.003Z,100736.21
2018-06-12T22:26:16.240Z,100741.70
2018-06-12T22:28:45.534Z,100733.16
2018-06-12T22:31:17.892Z,100735.03
2018-06-12T22:33:47.715Z,100735.87
2018-06-12T22:36:16.131Z,100732.66
2018-06-12T22:38:44.417Z,100729.14
2018-06-12T22:41:12.658Z,100736.23
2018-06-12T22:43:40.944Z,100738.42
2018-06-12T22:46:09.318Z,100740.32
2018-06-12T22:48:37.629Z,100741.57
2018-06-12T22:51:05.928Z,100751.17
2018-06-12T22:53:34.225Z,100754.46
2018-06-12T22:56:02.525Z,100747.86
2018-06-12T22:58:30.844Z,100743.34
2018-06-12T23:00:59.147Z,100748.53
2018-06-12T23:03:27.384Z,100760.48
2018-06-12T23:05:55.704Z,100748.97
2018-06-12T23:08:24.018Z,100755.50
2018-06-12T23:10:52.330Z,100756.37
2018-06-12T23:13:20.591Z,100749.09
2018-06-12T23:15:48.848Z,100755.08
2018-06-12T23:18:17.112Z,100757.58
2018-06-12T23:21:57.819Z,100766.20
2018-06-12T23:24:26.154Z,100764.06
2018-06-12T23:26:54.426Z,100763.44
2018-06-12T23:29:22.642Z,100755.36
2018-06-12T23:31:50.856Z,100757.28
2018-06-12T23:34:19.154Z,100757.31
2018-06-12T23:36:47.459Z,100762.97
2018-06-12T23:39:15.807Z,100762.77
2018-06-12T23:41:44.025Z,100764.53
2018-06-12T23:44:12.267Z,100764.06
2018-06-12T23:46:40.482Z,100759.19
2018-06-12T23:49:08.763Z,100759.37
2018-06-12T23:51:36.975Z,100759.66
2018-06-12T23:54:05.267Z,100760.73
2018-06-12T23:56:33.534Z,100762.56
2018-06-12T23:59:01.831Z,100757.74
